This is the latest recevied weather packets stored in our database for station/object VK4JLM-1. If no packets are shown the sender has not sent any weather packets the latest 10 day(s).
| Time | Temp. | Humidity | Pressure | Rain* | Wind** | Luminosity | Snow |
|---|---|---|---|---|---|---|---|
| 1777392566 | 15.56° C | 97% | 1025 hPa | 0 mm | - | - | - |
| 1777391571 | 15.56° C | 98% | 1025.1 hPa | 0 mm | - | - | - |
| 1777389476 | 16.11° C | 98% | 1025.4 hPa | 0 mm | - | - | - |
| 1777388426 | 16.11° C | 98% | 1025.5 hPa | 0 mm | - | - | - |
| 1777387361 | 16.11° C | 98% | 1025.5 hPa | 0 mm | - | - | - |
| 1777386266 | 16.67° C | 97% | 1025.4 hPa | 0 mm | - | - | - |
| 1777385166 | 16.67° C | 97% | 1025.7 hPa | 0.25 mm | - | - | - |
| 1777384111 | 16.67° C | 95% | 1025.8 hPa | 0.25 mm | - | - | - |
| 1777382946 | 17.22° C | 94% | 1025.8 hPa | 1.02 mm | - | - | - |
| 1777381766 | 17.22° C | 93% | 1026 hPa | 0.76 mm | - | - | - |
| 1777380621 | 17.22° C | 94% | 1026 hPa | 0.76 mm | - | - | - |
| 1777379521 | 17.78° C | 95% | 1026.4 hPa | 0 mm | - | - | - |
| 1777378426 | 17.78° C | 94% | 1026.4 hPa | 0.51 mm | - | - | - |
| 1777377386 | 17.78° C | 93% | 1026.2 hPa | 0.51 mm | - | - | - |
| 1777375196 | 18.33° C | 92% | 1026.3 hPa | 0 mm | - | - | - |
| 1777374158 | 18.33° C | 90% | 1026.2 hPa | 0 mm | - | - | - |
| 1777373096 | 18.33° C | 90% | 1026.3 hPa | 0 mm | - | - | - |
| 1777372026 | 18.33° C | 91% | 1026.3 hPa | 0 mm | - | - | - |
| 1777370931 | 18.33° C | 91% | 1026 hPa | 0.76 mm | - | - | - |
| 1777369796 | 17.78° C | 94% | 1026 hPa | 3.05 mm | - | - | - |
| 1777366606 | 18.33° C | 90% | 1026 hPa | 3.3 mm | - | - | - |
| 1777365546 | 18.89° C | 89% | 1025.5 hPa | 3.05 mm | - | - | - |
| 1777364466 | 18.89° C | 88% | 1025.4 hPa | 2.79 mm | - | - | - |
| 1777363476 | 18.89° C | 86% | 1025.4 hPa | 0 mm | - | - | - |
| 1777362396 | 20° C | 82% | 1024.9 hPa | 0 mm | - | - | - |
* Rain latest hour (hover to see other rain measurements)
** Current wind speed in m/s (hover to see current wind gust speed)